NCAR-RAP Real-Time Weather Data

Output produced by METARs form (26 May 2022  07:13 UTC)
found at http://weather.rap.ucar.edu/surface/
 
KBOS 260654Z 22006KT 10SM SCT220 12/04 A3036 RMK AO2 SLP280 T01170044
KBOS 260554Z 21008KT 10SM FEW250 12/04 A3036 RMK AO2 SLP279 T01170039 10161 20117 58001
KBOS 260454Z 22007KT 10SM FEW065 FEW250 12/04 A3037 RMK AO2 SLP283 T01220039 402060100
KBOS 260354Z 22008KT 10SM SCT065 SCT250 13/04 A3036 RMK AO2 SLP281 T01280039
KBOS 260254Z 20009KT 10SM FEW150 FEW250 13/04 A3036 RMK AO2 SLP280 T01330039 50008
KBOS 260154Z 19009KT 10SM FEW150 SCT250 14/05 A3036 RMK AO2 SLP280 T01390050
KBOS 260054Z 20014KT 10SM FEW150 SCT250 15/06 A3035 RMK AO2 SLP276 T01500061
KBOS 252354Z 20013KT 10SM SCT150 BKN250 17/06 A3034 RMK AO2 SLP272 T01670061 10206 20167 53001
KBOS 252254Z 19012KT 10SM FEW150 BKN250 19/08 A3032 RMK AO2 WSHFT 2153 SLP267 T01890078
KBOS 252213Z 19012KT 10SM FEW045 BKN250 21/08 A3032 RMK AO2 WSHFT 2153 T02060083
KBOS 252154Z 17012KT 10SM FEW045 BKN250 19/09 A3031 RMK AO2 SLP265 T01940094
KBOS 252054Z 10017KT 10SM FEW045 BKN250 17/08 A3033 RMK AO2 SLP271 T01720078 58013
KBOS 251954Z 10017KT 10SM FEW045 BKN250 17/08 A3035 RMK AO2 SLP275 T01720078
KBOS 251854Z 11015KT 10SM FEW050 SCT250 18/07 A3036 RMK AO2 SLP280 T01780072
KBOS 251754Z 10017KT 10SM FEW050 SCT250 17/06 A3037 RMK AO2 SLP283 T01720056 10178 20128 58013
KBOS 251654Z 11014KT 10SM FEW050 BKN250 17/07 A3039 RMK AO2 SLP289 T01720072
KBOS 251554Z 10012KT 10SM FEW050 BKN250 17/07 A3040 RMK AO2 SLP293 T01670067
KBOS 251454Z 12007KT 10SM BKN250 17/07 A3041 RMK AO2 SLP296 T01720072 50002
KBOS 251354Z 12009KT 10SM BKN250 16/07 A3041 RMK AO2 SLP298 T01560067
KBOS 251254Z 13006KT 10SM SCT250 14/09 A3042 RMK AO2 SLP299 T01440089
KBOS 251154Z 16005KT 10SM FEW250 13/08 A3040 RMK AO2 SLP294 T01280083 10133 20100 51009
KBOS 251054Z 16005KT 10SM BKN250 12/08 A3039 RMK AO2 SLP292 T01220078
KBOS 250954Z 21003KT 10SM BKN250 11/07 A3039 RMK AO2 SLP290 T01060067
KBOS 250854Z 21003KT 10SM FEW065 FEW250 11/06 A3038 RMK AO2 SLP285 T01060061 53006
KBOS 250754Z 19006KT 10SM OVC065 11/06 A3036 RMK AO2 SLP281 T01110061
KBOS 250654Z 19004KT 10SM OVC060 11/06 A3036 RMK AO2 SLP280 T01110056
KBOS 250554Z 19004KT 10SM BKN070 BKN250 11/06 A3036 RMK AO2 SLP279 T01110056 10122 20111 58004
KBOS 250454Z 17004KT 10SM BKN075 OVC250 11/07 A3037 RMK AO2 SLP283 T01110067 401560111
KBOS 250354Z 18004KT 10SM OVC070 12/06 A3037 RMK AO2 SLP284 T01170061
KBOS 250254Z 15005KT 10SM SCT250 12/07 A3037 RMK AO2 SLP283 T01170067 51009
KBOS 250154Z 14007KT 10SM FEW130 SCT250 12/07 A3037 RMK AO2 SLP282 T01170067
KBOS 250054Z 13008KT 10SM FEW130 SCT250 12/08 A3035 RMK AO2 SLP277 T01220078
KBOS 242354Z 10009KT 10SM FEW045 FEW130 BKN250 12/08 A3034 RMK AO2 SLP274 T01220078 10144 20122 55001
KBOS 242254Z 10012KT 10SM FEW045 FEW130 SCT250 13/08 A3033 RMK AO2 SLP271 T01280078
KBOS 242154Z 11011KT 10SM FEW045 FEW130 SCT250 13/09 A3034 RMK AO2 SLP273 T01280089
KBOS 242054Z 10012KT 10SM FEW045 FEW130 SCT250 13/08 A3035 RMK AO2 SLP275 T01330083 56003
KBOS 241954Z 09011KT 10SM FEW050 SCT250 14/08 A3035 RMK AO2 SLP278 T01390083
KBOS 241854Z 09011KT 10SM FEW055 SCT250 14/07 A3035 RMK AO2 SLP276 T01390072
KBOS 241754Z 09011KT 10SM FEW055 SCT250 14/07 A3036 RMK AO2 SLP278 6//// T01390067 10156 20122 $
KBOS 241654Z 09009KT 10SM FEW050 SCT250 15/06 A3036 RMK A02 SLPNO T01540057
KBOS 241554Z COR 10013KT 10SM FEW060 BKN250 16/07 A3038 RMK A02 SLPNO T01600065
KBOS 241454Z 08010KT 10SM FEW180 SCT250 15/06 A3037 RMK AO2 SLP283 T01500056 51006
KBOS 241354Z 07010KT 10SM FEW180 SCT250 14/04 A3036 RMK AO2 SLP281 T01440044
KBOS 241254Z 06010KT 10SM SCT180 BKN250 13/04 A3037 RMK AO2 SLP282 T01330039
KBOS 241154Z 05009KT 10SM FEW090 SCT160 BKN250 13/04 A3035 RMK AO2 SLP277 T01330044 10139 20122 51011
KBOS 241054Z 04012KT 10SM FEW090 BKN160 BKN250 13/04 A3034 RMK AO2 SLP273 T01280044
KBOS 240954Z 03010KT 10SM FEW065 BKN180 OVC250 12/05 A3033 RMK AO2 SLP270 T01220050
KBOS 240854Z 04014G18KT 10SM FEW065 BKN150 OVC250 13/04 A3032 RMK AO2 SLP266 T01280044 51013
KBOS 240754Z 03017G21KT 10SM FEW065 SCT150 BKN250 13/04 A3031 RMK AO2 SLP262 T01330039